createdAt,value
2017-05-09T00:00:57.038Z,4.60
2017-05-09T00:03:25.084Z,4.60
2017-05-09T00:05:52.003Z,4.60
2017-05-09T00:08:18.929Z,4.60
2017-05-09T00:10:45.853Z,4.60
2017-05-09T00:13:12.767Z,4.50
2017-05-09T00:15:39.666Z,4.60
2017-05-09T00:18:06.591Z,4.50
2017-05-09T00:20:33.510Z,4.50
2017-05-09T00:23:01.188Z,4.40
2017-05-09T00:25:28.113Z,4.50
2017-05-09T00:27:55.797Z,4.40
2017-05-09T00:30:22.710Z,4.50
2017-05-09T00:32:49.637Z,4.50
2017-05-09T00:35:16.571Z,4.50
2017-05-09T00:37:43.479Z,4.50
2017-05-09T00:40:10.406Z,4.50
2017-05-09T00:42:38.082Z,4.50
2017-05-09T00:45:05.022Z,4.50
2017-05-09T00:47:31.955Z,4.40
2017-05-09T00:49:59.623Z,4.40
2017-05-09T00:52:26.534Z,4.40
2017-05-09T00:54:53.447Z,4.30
2017-05-09T00:57:20.381Z,4.30
2017-05-09T00:59:47.297Z,4.20
2017-05-09T01:02:14.710Z,4.10
2017-05-09T01:04:41.662Z,4.10
2017-05-09T01:07:08.566Z,4.10
2017-05-09T01:09:36.209Z,4.00
2017-05-09T01:12:03.118Z,4.00
2017-05-09T01:14:30.047Z,4.00
2017-05-09T01:16:56.988Z,4.00
2017-05-09T01:19:23.930Z,4.00
2017-05-09T01:21:50.118Z,3.90
2017-05-09T01:24:17.058Z,4.10
2017-05-09T01:26:43.993Z,4.10
2017-05-09T01:29:10.910Z,4.10
2017-05-09T01:31:37.858Z,4.20
2017-05-09T01:34:05.541Z,4.20
2017-05-09T01:36:32.493Z,4.20
2017-05-09T01:38:59.451Z,4.20
2017-05-09T01:41:26.394Z,4.30
2017-05-09T01:43:53.331Z,4.20
2017-05-09T01:46:20.269Z,4.20
2017-05-09T01:48:47.180Z,4.20
2017-05-09T01:51:14.118Z,4.10
2017-05-09T01:53:41.051Z,4.10
2017-05-09T01:56:07.969Z,4.00
2017-05-09T01:58:34.876Z,3.90
2017-05-09T02:01:02.533Z,3.90
2017-05-09T02:03:29.453Z,3.80
2017-05-09T02:05:56.367Z,3.80
2017-05-09T02:08:23.298Z,3.80
2017-05-09T02:10:50.221Z,3.70
2017-05-09T02:13:17.131Z,3.70
2017-05-09T02:15:44.059Z,3.70
2017-05-09T02:18:11.006Z,3.70
2017-05-09T02:20:37.931Z,3.70
2017-05-09T02:23:05.193Z,3.70
2017-05-09T02:25:32.126Z,3.80
2017-05-09T02:27:59.037Z,3.80
2017-05-09T02:30:26.066Z,3.70
2017-05-09T02:32:53.730Z,3.70
2017-05-09T02:35:21.374Z,3.70
2017-05-09T02:37:48.385Z,3.70
2017-05-09T02:40:15.299Z,3.70
2017-05-09T02:42:42.230Z,3.70
2017-05-09T02:45:10.255Z,3.70
2017-05-09T02:47:37.173Z,3.70
2017-05-09T02:50:04.112Z,3.70
2017-05-09T02:52:31.045Z,3.70
2017-05-09T02:54:57.978Z,3.70
2017-05-09T02:57:24.899Z,3.70
2017-05-09T02:59:52.644Z,3.60
2017-05-09T03:02:19.567Z,3.60
2017-05-09T03:04:46.479Z,3.50
2017-05-09T03:07:13.412Z,3.50
2017-05-09T03:09:39.587Z,3.50
2017-05-09T03:12:06.533Z,3.40
2017-05-09T03:14:33.445Z,3.30
2017-05-09T03:17:00.353Z,3.30
2017-05-09T03:19:28.040Z,3.20
2017-05-09T03:21:55.344Z,3.20
2017-05-09T03:24:22.238Z,3.20
2017-05-09T03:26:49.178Z,3.10
2017-05-09T03:29:16.118Z,3.10
2017-05-09T03:31:43.051Z,3.10
2017-05-09T03:34:10.713Z,3.10
2017-05-09T03:36:38.381Z,3.00
2017-05-09T03:39:05.318Z,3.10
2017-05-09T03:41:33.010Z,3.00
2017-05-09T03:43:59.986Z,3.10
2017-05-09T03:46:26.926Z,3.10
2017-05-09T03:48:53.863Z,3.10
2017-05-09T03:51:21.030Z,3.10
2017-05-09T03:53:47.970Z,3.10
2017-05-09T03:56:14.923Z,3.10
2017-05-09T03:58:41.858Z,3.20
2017-05-09T04:01:08.811Z,3.20
2017-05-09T04:03:35.771Z,3.20
2017-05-09T04:06:02.749Z,3.30
2017-05-09T04:08:29.695Z,3.30
2017-05-09T04:10:56.671Z,3.20
2017-05-09T04:13:23.684Z,3.30
2017-05-09T04:15:50.773Z,3.30
2017-05-09T04:18:17.719Z,3.30
2017-05-09T04:20:44.915Z,3.20
2017-05-09T04:23:12.814Z,3.20
2017-05-09T04:25:40.145Z,3.10
2017-05-09T04:28:07.114Z,3.10
2017-05-09T04:30:34.062Z,3.10
2017-05-09T04:33:00.986Z,3.10
2017-05-09T04:35:27.947Z,3.10
2017-05-09T04:37:54.865Z,3.10
2017-05-09T04:40:21.813Z,3.10
2017-05-09T04:42:48.743Z,3.20
2017-05-09T04:45:15.677Z,3.20
2017-05-09T04:47:43.429Z,3.30
2017-05-09T04:50:10.394Z,3.40
2017-05-09T04:52:37.360Z,3.40
2017-05-09T04:55:04.332Z,3.50
2017-05-09T04:57:31.299Z,3.60
2017-05-09T04:59:58.268Z,3.60
2017-05-09T05:02:25.951Z,3.50
2017-05-09T05:04:52.933Z,3.60
2017-05-09T05:07:19.898Z,3.50
2017-05-09T05:09:46.831Z,3.60
2017-05-09T05:12:13.797Z,3.70
2017-05-09T05:14:40.758Z,3.80
2017-05-09T05:17:07.695Z,3.90
2017-05-09T05:19:35.518Z,4.00
2017-05-09T05:22:02.434Z,4.20
2017-05-09T05:24:29.363Z,4.30
2017-05-09T05:26:56.314Z,4.40
2017-05-09T05:29:23.338Z,4.60
2017-05-09T05:31:51.016Z,4.60
2017-05-09T05:34:17.993Z,4.80
2017-05-09T05:36:45.016Z,4.80
2017-05-09T05:39:11.943Z,5.00
2017-05-09T05:41:38.906Z,5.30
2017-05-09T05:44:05.903Z,6.30
2017-05-09T05:46:32.878Z,7.70
2017-05-09T05:48:59.878Z,8.60
2017-05-09T05:51:26.812Z,8.90
2017-05-09T05:53:53.751Z,9.00
2017-05-09T05:56:21.118Z,9.50
2017-05-09T05:58:48.071Z,10.70
2017-05-09T06:01:14.998Z,11.00
2017-05-09T06:03:41.938Z,10.90
2017-05-09T06:06:09.718Z,10.70
2017-05-09T06:08:37.626Z,10.40
2017-05-09T06:11:05.336Z,10.50
2017-05-09T06:13:32.257Z,10.70
2017-05-09T06:15:59.213Z,10.90
2017-05-09T06:18:26.163Z,10.80
2017-05-09T06:20:53.111Z,10.90
2017-05-09T06:23:20.062Z,11.10
2017-05-09T06:25:46.990Z,11.20
2017-05-09T06:28:13.922Z,11.10
2017-05-09T06:30:40.862Z,11.00
2017-05-09T06:33:07.811Z,10.70
2017-05-09T06:35:34.743Z,10.50
2017-05-09T06:38:01.685Z,10.50
2017-05-09T06:40:28.623Z,10.50
2017-05-09T06:42:55.563Z,10.50
2017-05-09T06:45:23.237Z,10.40
2017-05-09T06:47:50.316Z,10.40
2017-05-09T06:50:17.278Z,10.40
2017-05-09T06:52:44.235Z,10.70
2017-05-09T06:55:11.206Z,11.10
2017-05-09T06:57:38.195Z,11.30
2017-05-09T07:00:05.118Z,11.30
2017-05-09T07:02:32.050Z,11.20
2017-05-09T07:04:59.005Z,10.80
2017-05-09T07:07:25.935Z,10.50
2017-05-09T07:09:52.889Z,10.40
2017-05-09T07:12:19.809Z,10.50
2017-05-09T07:14:46.738Z,10.50
2017-05-09T07:17:13.688Z,10.60
2017-05-09T07:19:41.375Z,10.60
2017-05-09T07:22:08.315Z,10.70
2017-05-09T07:24:35.379Z,11.10
2017-05-09T07:27:02.315Z,11.60
2017-05-09T07:29:29.271Z,12.10
2017-05-09T07:31:56.222Z,12.50
2017-05-09T07:34:23.167Z,12.90
2017-05-09T07:36:50.114Z,12.80
2017-05-09T07:39:17.080Z,12.80
2017-05-09T07:41:44.042Z,12.90
2017-05-09T07:44:11.623Z,12.80
2017-05-09T07:46:38.583Z,12.70
2017-05-09T07:49:05.599Z,12.80
2017-05-09T07:51:33.294Z,12.90
2017-05-09T07:54:00.253Z,13.00
2017-05-09T07:56:27.256Z,13.20
2017-05-09T07:58:54.941Z,13.20
2017-05-09T08:01:21.897Z,13.40
2017-05-09T08:03:48.820Z,13.60
2017-05-09T08:06:15.881Z,13.70
2017-05-09T08:08:42.825Z,13.70
2017-05-09T08:11:09.776Z,13.90
2017-05-09T08:13:36.717Z,14.10
2017-05-09T08:16:03.674Z,14.30
2017-05-09T08:18:30.617Z,14.70
2017-05-09T08:20:57.551Z,15.00
2017-05-09T08:23:24.495Z,15.10
2017-05-09T08:25:51.439Z,14.70
2017-05-09T08:28:18.369Z,14.10
2017-05-09T08:30:45.344Z,13.60
2017-05-09T08:33:12.308Z,13.30
2017-05-09T08:35:39.262Z,13.00
2017-05-09T08:38:06.231Z,12.80
2017-05-09T08:40:33.910Z,12.80
2017-05-09T08:43:01.024Z,12.90
2017-05-09T08:45:27.982Z,12.90
2017-05-09T08:47:55.674Z,12.80
2017-05-09T08:50:22.610Z,12.80
2017-05-09T08:52:49.575Z,12.70
2017-05-09T08:55:16.528Z,12.70
2017-05-09T08:57:43.505Z,12.70
2017-05-09T09:00:10.750Z,12.70
2017-05-09T09:02:37.717Z,12.70
2017-05-09T09:05:04.668Z,12.60
2017-05-09T09:07:32.358Z,12.50
2017-05-09T09:09:59.298Z,12.50
2017-05-09T09:12:26.229Z,12.50
2017-05-09T09:14:53.187Z,12.60
2017-05-09T09:17:20.291Z,12.60
2017-05-09T09:19:47.225Z,12.40
2017-05-09T09:22:14.158Z,12.20
2017-05-09T09:24:41.128Z,12.20
2017-05-09T09:27:08.106Z,12.20
2017-05-09T09:29:35.046Z,12.20
2017-05-09T09:32:02.009Z,12.40
2017-05-09T09:34:28.970Z,12.30
2017-05-09T09:36:55.919Z,12.30
2017-05-09T09:39:22.859Z,12.20
2017-05-09T09:41:49.796Z,12.00
2017-05-09T09:44:16.734Z,12.00
2017-05-09T09:46:43.695Z,12.00
2017-05-09T09:49:10.755Z,11.90
2017-05-09T09:51:37.682Z,11.70
2017-05-09T09:54:04.620Z,11.60
2017-05-09T09:56:31.547Z,11.50
2017-05-09T09:58:58.491Z,11.40
2017-05-09T10:01:25.401Z,11.30
2017-05-09T10:03:53.069Z,11.20
2017-05-09T10:06:20.745Z,11.30
2017-05-09T10:08:47.686Z,11.50
2017-05-09T10:11:14.614Z,11.80
2017-05-09T10:13:42.323Z,12.10
2017-05-09T10:16:09.275Z,12.20
2017-05-09T10:18:36.227Z,12.30
2017-05-09T10:21:03.159Z,12.20
2017-05-09T10:23:30.095Z,12.10
2017-05-09T10:25:57.025Z,12.00
2017-05-09T10:28:23.987Z,11.80
2017-05-09T10:30:50.931Z,11.40
2017-05-09T10:33:17.854Z,11.20
2017-05-09T10:35:44.989Z,11.10
2017-05-09T10:38:12.726Z,11.00
2017-05-09T10:40:39.694Z,10.80
2017-05-09T10:43:07.389Z,10.80
2017-05-09T10:45:34.336Z,10.80
2017-05-09T10:48:01.288Z,10.80
2017-05-09T10:50:28.214Z,10.80
2017-05-09T10:52:55.142Z,11.00
2017-05-09T10:55:22.079Z,11.10
2017-05-09T10:57:49.023Z,11.40
2017-05-09T11:00:16.669Z,11.60
2017-05-09T11:02:44.371Z,11.60
2017-05-09T11:05:11.358Z,11.70
2017-05-09T11:07:38.335Z,11.70
2017-05-09T11:10:05.261Z,11.70
2017-05-09T11:12:32.238Z,11.80
2017-05-09T11:14:59.190Z,11.70
2017-05-09T11:17:26.270Z,11.50
2017-05-09T11:19:53.600Z,11.50
2017-05-09T11:22:20.625Z,11.40
2017-05-09T11:24:47.613Z,11.30
2017-05-09T11:27:14.596Z,11.30
2017-05-09T11:29:42.258Z,11.40
2017-05-09T11:32:09.942Z,11.60
2017-05-09T11:34:36.894Z,11.70
2017-05-09T11:37:03.832Z,11.80
2017-05-09T11:39:31.435Z,11.90
2017-05-09T11:41:59.637Z,11.80
2017-05-09T11:44:26.642Z,11.70
2017-05-09T11:46:53.579Z,11.50
2017-05-09T11:49:20.565Z,11.20
2017-05-09T11:51:47.548Z,11.20
2017-05-09T11:54:14.482Z,11.20
2017-05-09T11:56:41.486Z,11.30
2017-05-09T11:59:08.426Z,11.40
2017-05-09T12:01:35.395Z,11.50
2017-05-09T12:04:03.117Z,11.40
2017-05-09T12:06:30.031Z,11.40
2017-05-09T12:08:56.971Z,11.40
2017-05-09T12:11:23.956Z,11.50
2017-05-09T12:13:50.994Z,11.60
2017-05-09T12:16:18.026Z,11.50
2017-05-09T12:18:45.009Z,11.50
2017-05-09T12:21:11.998Z,11.50
2017-05-09T12:23:38.939Z,11.50
2017-05-09T12:26:05.915Z,11.30
2017-05-09T12:28:32.893Z,11.20
2017-05-09T12:30:59.850Z,11.10
2017-05-09T12:33:27.771Z,11.00
2017-05-09T12:35:55.079Z,10.90
2017-05-09T12:38:22.047Z,10.70
2017-05-09T12:40:49.530Z,10.50
2017-05-09T12:43:16.566Z,10.30
2017-05-09T12:45:44.682Z,10.10
2017-05-09T12:48:12.646Z,9.90
2017-05-09T12:50:40.384Z,9.70
2017-05-09T12:53:08.385Z,9.70
2017-05-09T12:55:35.355Z,9.60
2017-05-09T12:58:02.864Z,9.50
2017-05-09T13:00:29.969Z,9.50
2017-05-09T13:02:56.990Z,9.50
2017-05-09T13:05:24.690Z,9.50
2017-05-09T13:07:51.978Z,9.60
2017-05-09T13:10:19.004Z,9.70
2017-05-09T13:12:45.961Z,9.80
2017-05-09T13:15:12.899Z,9.80
2017-05-09T13:17:39.877Z,10.00
2017-05-09T13:20:07.597Z,10.10
2017-05-09T13:22:34.529Z,10.20
2017-05-09T13:25:01.597Z,10.20
2017-05-09T13:27:28.513Z,10.30
2017-05-09T13:29:55.596Z,10.40
2017-05-09T13:32:22.562Z,10.50
2017-05-09T13:34:50.266Z,10.70
2017-05-09T13:37:17.233Z,10.90
2017-05-09T13:39:44.203Z,10.90
2017-05-09T13:42:11.157Z,10.90
2017-05-09T13:44:38.095Z,10.80
2017-05-09T13:47:05.090Z,10.70
2017-05-09T13:49:32.060Z,10.60
2017-05-09T13:51:59.033Z,10.50
2017-05-09T13:54:26.252Z,10.40
2017-05-09T13:56:53.237Z,10.30
2017-05-09T13:59:20.169Z,10.30
2017-05-09T14:01:47.146Z,10.40
2017-05-09T14:04:14.823Z,10.50
2017-05-09T14:06:41.798Z,10.60
2017-05-09T14:09:08.776Z,10.60
2017-05-09T14:11:36.471Z,10.60
2017-05-09T14:14:03.438Z,10.70
2017-05-09T14:16:30.555Z,10.90
2017-05-09T14:18:57.554Z,11.00
2017-05-09T14:21:25.726Z,11.00
2017-05-09T14:23:52.737Z,11.00
2017-05-09T14:26:19.719Z,11.00
2017-05-09T14:28:46.739Z,11.10
2017-05-09T14:31:13.725Z,11.10
2017-05-09T14:33:41.009Z,10.90
2017-05-09T14:36:08.063Z,10.90
2017-05-09T14:38:35.003Z,10.80
2017-05-09T14:41:01.989Z,10.70
2017-05-09T14:43:28.927Z,10.60
2017-05-09T14:45:55.885Z,10.60
2017-05-09T14:48:22.843Z,10.50
2017-05-09T14:50:49.942Z,10.40
2017-05-09T14:53:16.955Z,10.30
2017-05-09T14:55:44.996Z,10.20
2017-05-09T14:58:12.005Z,10.20
2017-05-09T15:00:38.964Z,10.20
2017-05-09T15:03:05.912Z,10.30
2017-05-09T15:05:33.019Z,10.40
2017-05-09T15:07:59.982Z,10.40
2017-05-09T15:10:26.992Z,10.50
2017-05-09T15:12:54.665Z,10.50
2017-05-09T15:15:22.382Z,10.70
2017-05-09T15:17:49.780Z,10.90
2017-05-09T15:20:17.503Z,11.10
2017-05-09T15:22:44.787Z,11.30
2017-05-09T15:25:12.443Z,11.40
2017-05-09T15:27:39.386Z,11.50
2017-05-09T15:30:06.353Z,11.40
2017-05-09T15:32:33.293Z,11.20
2017-05-09T15:35:01.057Z,11.00
2017-05-09T15:37:28.815Z,10.70
2017-05-09T15:39:56.538Z,10.50
2017-05-09T15:42:23.654Z,10.30
2017-05-09T15:44:50.631Z,10.20
2017-05-09T15:47:17.608Z,10.10
2017-05-09T15:49:45.292Z,10.00
2017-05-09T15:52:12.595Z,9.90
2017-05-09T15:54:39.979Z,9.90
2017-05-09T15:57:07.647Z,9.70
2017-05-09T15:59:35.307Z,9.60
2017-05-09T16:02:03.005Z,9.50
2017-05-09T16:04:30.132Z,9.40
2017-05-09T16:06:57.250Z,9.40
2017-05-09T16:09:24.159Z,9.30
2017-05-09T16:11:51.103Z,9.30
2017-05-09T16:14:18.123Z,9.30
2017-05-09T16:16:45.063Z,9.30
2017-05-09T16:19:12.039Z,9.30
2017-05-09T16:21:38.961Z,9.40
2017-05-09T16:24:05.916Z,9.50
2017-05-09T16:26:33.270Z,9.60
2017-05-09T16:29:00.222Z,9.80
2017-05-09T16:31:27.163Z,10.00
2017-05-09T16:33:54.135Z,10.20
2017-05-09T16:36:21.071Z,10.30
2017-05-09T16:38:47.983Z,10.20
2017-05-09T16:41:14.953Z,10.10
2017-05-09T16:43:41.945Z,10.10
2017-05-09T16:46:08.997Z,10.00
2017-05-09T16:48:35.960Z,10.00
2017-05-09T16:51:03.373Z,10.00
2017-05-09T16:53:31.204Z,10.00
2017-05-09T16:55:58.276Z,9.90
2017-05-09T16:58:25.369Z,9.80
2017-05-09T17:00:52.314Z,9.80
2017-05-09T17:03:19.299Z,9.70
2017-05-09T17:05:46.321Z,9.70
2017-05-09T17:08:13.295Z,9.60
2017-05-09T17:10:40.230Z,9.50
2017-05-09T17:13:07.222Z,9.40
2017-05-09T17:15:34.947Z,9.20
2017-05-09T17:18:01.914Z,9.10
2017-05-09T17:20:29.657Z,8.90
2017-05-09T17:22:56.621Z,8.90
2017-05-09T17:25:26.200Z,8.80
2017-05-09T17:27:54.763Z,8.90
2017-05-09T17:30:22.741Z,8.90
2017-05-09T17:32:50.476Z,8.90
2017-05-09T17:35:17.482Z,9.00
2017-05-09T17:37:45.269Z,8.90
2017-05-09T17:40:13.155Z,8.80
2017-05-09T17:42:40.386Z,8.80
2017-05-09T17:45:07.367Z,8.70
2017-05-09T17:47:34.359Z,8.60
2017-05-09T17:50:02.407Z,8.40
2017-05-09T17:52:29.401Z,8.30
2017-05-09T17:54:56.414Z,8.20
2017-05-09T17:57:23.784Z,8.10
2017-05-09T17:59:51.536Z,7.90
2017-05-09T18:02:19.333Z,7.80
2017-05-09T18:04:46.292Z,7.80
2017-05-09T18:07:13.339Z,7.80
2017-05-09T18:09:40.496Z,7.70
2017-05-09T18:12:07.466Z,7.50
2017-05-09T18:14:34.430Z,7.40
2017-05-09T18:17:02.151Z,7.30
2017-05-09T18:19:29.215Z,7.20
2017-05-09T18:21:58.128Z,7.10
2017-05-09T18:24:25.251Z,7.00
2017-05-09T18:26:52.342Z,6.90
2017-05-09T18:29:19.757Z,6.80
2017-05-09T18:31:47.499Z,6.70
2017-05-09T18:34:14.532Z,6.60
2017-05-09T18:36:41.708Z,6.50
2017-05-09T18:39:08.688Z,6.40
2017-05-09T18:41:36.789Z,6.30
2017-05-09T18:44:03.813Z,6.20
2017-05-09T18:46:33.048Z,6.10
2017-05-09T18:49:00.123Z,6.00
2017-05-09T18:51:27.123Z,6.00
2017-05-09T18:53:54.132Z,5.90
2017-05-09T18:56:21.134Z,5.80
2017-05-09T18:58:48.159Z,5.70
2017-05-09T19:01:15.357Z,5.60
2017-05-09T19:03:42.832Z,5.50
2017-05-09T19:06:09.860Z,5.40
2017-05-09T19:08:36.974Z,5.30
2017-05-09T19:11:04.325Z,5.20
2017-05-09T19:13:32.366Z,5.10
2017-05-09T19:15:59.981Z,5.10
2017-05-09T19:18:27.685Z,5.00
2017-05-09T19:20:55.278Z,4.90
2017-05-09T19:23:22.392Z,4.90
2017-05-09T19:25:51.002Z,4.80
2017-05-09T19:28:18.660Z,4.70
2017-05-09T19:30:46.261Z,4.70
2017-05-09T19:33:14.521Z,4.50
2017-05-09T19:35:41.713Z,4.50
2017-05-09T19:38:09.470Z,4.40
2017-05-09T19:40:36.582Z,4.30
2017-05-09T19:43:03.925Z,4.20
2017-05-09T19:45:31.494Z,4.10
2017-05-09T19:47:58.908Z,4.00
2017-05-09T19:50:26.476Z,4.00
2017-05-09T19:52:54.907Z,4.00
2017-05-09T19:55:23.412Z,3.90
2017-05-09T19:57:51.575Z,3.90
2017-05-09T20:00:19.421Z,3.80
2017-05-09T20:02:47.869Z,3.70
2017-05-09T20:05:16.980Z,3.70
2017-05-09T20:07:43.991Z,3.60
2017-05-09T20:10:10.989Z,3.60
2017-05-09T20:12:38.003Z,3.50
2017-05-09T20:15:04.929Z,3.50
2017-05-09T20:17:32.907Z,3.50
2017-05-09T20:20:00.011Z,3.40
2017-05-09T20:22:26.984Z,3.40
2017-05-09T20:24:54.156Z,3.30
2017-05-09T20:27:21.107Z,3.30
2017-05-09T20:29:48.052Z,3.20
2017-05-09T20:32:14.981Z,3.20
2017-05-09T20:34:41.936Z,3.10
2017-05-09T20:37:08.927Z,3.10
2017-05-09T20:39:35.998Z,3.10
2017-05-09T20:42:03.891Z,3.10
2017-05-09T20:44:30.869Z,3.10
2017-05-09T20:46:57.833Z,3.00
2017-05-09T20:49:24.751Z,3.00
2017-05-09T20:51:51.687Z,2.90
2017-05-09T20:54:18.632Z,2.90
2017-05-09T20:56:45.578Z,2.80
2017-05-09T20:59:12.504Z,2.80
2017-05-09T21:01:39.438Z,2.80
2017-05-09T21:04:06.380Z,2.70
2017-05-09T21:06:33.297Z,2.80
2017-05-09T21:09:01.005Z,2.70
2017-05-09T21:11:28.021Z,2.70
2017-05-09T21:13:55.750Z,2.70
2017-05-09T21:16:22.708Z,2.70
2017-05-09T21:18:50.358Z,2.70
2017-05-09T21:21:17.294Z,2.70
2017-05-09T21:23:44.247Z,2.60
2017-05-09T21:26:11.173Z,2.60
2017-05-09T21:28:38.121Z,2.60
2017-05-09T21:31:05.073Z,2.60
2017-05-09T21:33:32.007Z,2.60
2017-05-09T21:35:58.988Z,2.50
2017-05-09T21:38:26.665Z,2.50
2017-05-09T21:40:53.651Z,2.50
2017-05-09T21:43:20.566Z,2.50
2017-05-09T21:45:47.522Z,2.40
2017-05-09T21:48:14.437Z,2.40
2017-05-09T21:50:41.349Z,2.40
2017-05-09T21:53:08.377Z,2.30
2017-05-09T21:55:35.285Z,2.30
2017-05-09T21:58:02.190Z,2.30
2017-05-09T22:00:29.139Z,2.30
2017-05-09T22:02:56.795Z,2.20
2017-05-09T22:05:23.731Z,2.20
2017-05-09T22:07:50.658Z,2.20
2017-05-09T22:10:17.577Z,2.10
2017-05-09T22:12:44.493Z,2.10
2017-05-09T22:15:11.434Z,2.10
2017-05-09T22:17:39.095Z,2.00
2017-05-09T22:20:06.766Z,2.00
2017-05-09T22:22:33.695Z,2.00
2017-05-09T22:25:01.368Z,2.00
2017-05-09T22:27:28.287Z,2.00
2017-05-09T22:29:55.224Z,2.00
2017-05-09T22:32:22.247Z,2.00
2017-05-09T22:34:49.164Z,1.90
2017-05-09T22:37:16.162Z,1.90
2017-05-09T22:39:43.098Z,1.90
2017-05-09T22:42:10.015Z,1.90
2017-05-09T22:44:36.990Z,1.80
2017-05-09T22:47:03.922Z,1.80
2017-05-09T22:49:30.835Z,1.80
2017-05-09T22:51:57.745Z,1.70
2017-05-09T22:54:25.389Z,1.70
2017-05-09T22:56:52.291Z,1.70
2017-05-09T22:59:19.210Z,1.70
2017-05-09T23:01:46.154Z,1.70
2017-05-09T23:04:13.066Z,1.70
2017-05-09T23:06:40.019Z,1.60
2017-05-09T23:09:07.661Z,1.60
2017-05-09T23:11:34.589Z,1.60
2017-05-09T23:14:01.515Z,1.50
2017-05-09T23:16:28.421Z,1.50
2017-05-09T23:18:56.119Z,1.40
2017-05-09T23:21:23.050Z,1.50
2017-05-09T23:23:49.978Z,1.40
2017-05-09T23:26:16.918Z,1.40
2017-05-09T23:28:43.872Z,1.40
2017-05-09T23:31:10.803Z,1.40
2017-05-09T23:33:37.743Z,1.40
2017-05-09T23:36:05.410Z,1.40
2017-05-09T23:38:32.357Z,1.50
2017-05-09T23:40:59.298Z,1.50
2017-05-09T23:43:26.239Z,1.50
2017-05-09T23:45:53.174Z,1.50
2017-05-09T23:48:20.850Z,1.50
2017-05-09T23:50:47.787Z,1.50
2017-05-09T23:53:15.455Z,1.40
2017-05-09T23:55:42.397Z,1.40
2017-05-09T23:58:09.338Z,1.40
